Aguanga, California
Current Conditions -  °F | °C
As of 8:55 AM on Thursday 27 Nov 2014 (Local Time) from KF70 Reporting Station
Clear Clear  
Wind Chill: 66°   Ceiling: Unl
Heat Index: 66°   Visibility: 10mi
Dew Point: 25°   Wind: 5mph
Humidity: 21%   Direction: 10°N
Pressure: 30.18"   Gusts: NA
Location:  33.44°N, 116.87°W
Report Text: KF70 271655Z AUTO 01004KT 10SM CLR 19/M04 A3018 RMK AO1
Loading
Personal Weather Stations






























Interactive Weather Map New forecast layout! Learn more

10-Day Weather Forecast

Advertisements
Track Severe Weather on mobile